Carlos Reyes

Olheiro - Oviedo
25 Nov 2027
Quinta-feira
Processo

Personalidade

Adaptabilidade (18) Ambição (16) Controvérsia (17) Lealdade (11) Pressão (7) Profissionalismo (8) Espírito Esportivo (16) Temperamento (10)

Perfil

Estilo de Treinamento Democrático
Licença Nacional B
Determinação 4
Gestão de Pessoas 6
Motivação 9
Disciplina 8
Satisfação no Trabalho
100%
Fadiga
0%
Função Olheiro
Salário 17.4K p/s
Contrato 14.03.2030

Desempenho

Comportamento Bom
Eficácia do Treinamento
44%
Desenvolvimento do Jogador
35%
Prevenção de Lesões
65%
Implementação Tática
40%

Eventos Recentes

Participou de uma reunião de recrutamento agora
Participou de uma reunião de recrutamento agora
Participou de uma reunião de recrutamento 7d atrás
Participou de uma reunião de recrutamento 7d atrás
Participou de uma reunião de recrutamento 7d atrás
Recomendou um alvo de transferência 7d atrás
Observou uma partida 7d atrás
Observou uma partida 7d atrás

Monitorando agora

138
Jogador Clube Status Habilidade Confiança Observado Última observação Último voto
Raúl Sánchez Castellón Ativo 121 / 105 72% 1 14.06.2027 Aprovar
Gonçalo Oliveira Benfica Ativo 108 / 104 40% 2 28.05.2027 -
Darryl Bakola Padova Ativo 111 / 111 40% 3 28.05.2027 -
Marc Bernal Real Sociedad Perdido 148 / 153 40% 1 28.05.2027 -
Louis Leroux FC Nantes Ativo 132 / 119 40% 3 27.05.2027 -
Kazunari Kita Real Sociedad Ativo 93 / 106 40% 4 27.05.2027 Observar
Simone Kosijer Triestina Ativo 91 / 114 40% 1 27.05.2027 -
Christ Inao Oulaï Fiorentina Ativo 129 / 145 40% 4 26.05.2027 -
Dylan Lawlor Cardiff City Ativo 109 / 111 40% 2 26.05.2027 -
Lucas Høgsberg RC Strasbourg Ativo 135 / 133 40% 2 26.05.2027 -
Simón Pinto Palestino Ativo 96 / 108 40% 1 25.05.2027 -
Ibrahim Maza Bayer Leverkusen Ativo 151 / 143 40% 5 24.05.2027 -
Khalis Merah Toulouse FC Ativo 123 / 126 40% 2 24.05.2027 -
Kevin Vazquez Cruz Azul Ativo 146 / 154 40% 12 20.05.2027 -
Matías Gómez Granada Ativo 113 / 122 40% 6 20.05.2027 -
Bernardo Lima Porto Ativo 92 / 105 40% 2 18.05.2027 -
José Pachuca Puebla Ativo 114 / 103 40% 2 18.05.2027 -
Tiago Freitas Benfica Ativo 108 / 116 40% 1 18.05.2027 -
Juan Giménez Celta Ativo 121 / 134 40% 2 17.05.2027 -
Daniel Vernattus Metalist Ativo 92 / 79 40% 1 17.05.2027 -
Matvey Kislyak CSKA Moscow Ativo 125 / 149 40% 3 16.05.2027 -
Yusi Alavés Ativo 133 / 147 40% 5 15.05.2027 -
Sascha Britschgi Padova Ativo 113 / 129 40% 3 15.05.2027 -
Caleb Yirenkyi Coventry City Ativo 139 / 129 40% 2 14.05.2027 -
Johan Manzambi Newcastle United Ativo 139 / 141 40% 1 14.05.2027 -
Leonardo Mendicino Bari Ativo 113 / 129 40% 1 14.05.2027 -
Joel McGregor Swindon Town Ativo 96 / 106 40% 3 09.05.2027 -
Daniel Kelly Oxford United Ativo 108 / 119 40% 1 09.05.2027 -
Noah Nartey Olympique Lyonnais Ativo 128 / 140 40% 2 03.05.2027 -
Josh King Chelsea Ativo 142 / 138 40% 2 23.04.2027 -
Cheveyo Tsawa Club Brugge Ativo 120 / 122 40% 1 23.04.2027 -
Yussif Saidu Zaragoza Ativo 116 / 125 40% 3 22.04.2027 -
Jan Bürger Gillingham Ativo 111 / 108 40% 2 22.04.2027 -
David Ozoh Derby County Ativo 114 / 115 40% 3 20.04.2027 -
Toni Tamarit Alverca Ativo 114 / 131 40% 2 20.04.2027 -
Riley Owen Trento Ativo 106 / 112 40% 2 18.04.2027 -
Samuele di Benedetto Bari Ativo 112 / 106 40% 1 18.04.2027 -
Daniel Costa Sporting CP Ativo 97 / 101 40% 1 15.04.2027 -
Ronwen Phiri Platinum Stars Ativo 106 / 108 40% 2 10.04.2027 -
Surprise Manthosi Polokwane City Ativo 88 / 91 40% 1 08.04.2027 -
João Simões Sporting CP Ativo 136 / 138 40% 3 06.04.2027 -
Lucas Agazzi Defensor Sporting Ativo 125 / 129 40% 3 05.04.2027 -
Christos Mouzakitis Hull City Ativo 128 / 129 40% 2 05.04.2027 -
Jack Hinshelwood Brighton Ativo 138 / 161 40% 1 05.04.2027 -
Zaïd BafdilI Sporting CP Ativo 92 / 100 40% 1 02.04.2027 -
Adam Bakoune Ospitaletto Ativo 92 / 90 40% 1 01.04.2027 -
Izan Merino Málaga Ativo 131 / 125 40% 1 25.03.2027 -
Victor Froholdt Porto Ativo 146 / 167 40% 1 22.03.2027 -
Cemran Dansin Orlando Pirates Ativo 104 / 117 40% 1 20.03.2027 -
David Valencia Alianza Petrolera Ativo 121 / 138 40% 1 17.03.2027 -
Jofre Torrents Ajax Ativo 121 / 133 40% 2 14.03.2027 -
James Dornelly Peterborough United Ativo 96 / 105 40% 2 07.03.2027 -
Pape Diong Westerlo Ativo 108 / 110 40% 1 07.03.2027 -
Martim Cunha Porto Ativo 93 / 102 40% 1 02.03.2027 -
Ernie Weaver AFC Wimbledon Ativo 102 / 122 40% 1 02.03.2027 -
Hamish Douglas Grimsby Town Ativo 89 / 90 40% 1 01.03.2027 -
Lautaro Vargas Leganés Ativo 127 / 118 40% 1 12.01.2027 -
Antoni Milambo Brentford Ativo 135 / 154 40% 1 12.01.2027 -
Aidan Morris Middlesbrough Ativo 134 / 126 40% 1 30.12.2026 -
Juan Pablo Freytes Fluminense Ativo 121 / 123 40% 1 30.12.2026 -
Ilay Camara Anderlecht Ativo 136 / 130 40% 2 28.12.2026 -
Florentino Luís Ipswich Town Ativo 143 / 152 40% 1 28.12.2026 -
Gorka Gorosabel Real Sociedad Ativo 101 / 126 67% 1 26.12.2026 Observar
Fran Beltrán Girona Ativo 149 / 134 40% 3 24.12.2026 -
Callum Doyle Wrexham Ativo 125 / 136 40% 1 24.12.2026 -
Mfundo Vilakazi Kaizer Chiefs Ativo 117 / 128 40% 1 22.12.2026 -
Senny Mayulu Paris Saint-Germain Ativo 151 / 150 40% 1 20.12.2026 -
Tristan Degreef Anderlecht Ativo 116 / 121 40% 2 19.12.2026 -
Jesús Areso Athletic Bilbao Ativo 135 / 134 40% 1 17.12.2026 -
Arnau Martínez Valencia Ativo 148 / 152 40% 1 17.12.2026 -
Daijiro Chirino Almería Ativo 137 / 145 40% 1 17.12.2026 -
Welington Southampton Ativo 123 / 132 40% 3 15.12.2026 -
Bobby Thomas Coventry City Ativo 142 / 121 40% 1 15.12.2026 -
Samuel Lucero Defensa y Justicia Ativo 109 / 116 40% 2 14.12.2026 -
Assane Diao Lazio Ativo 154 / 161 40% 3 14.12.2026 -
Lander Astiazarán Real Sociedad Ativo 94 / 105 40% 1 14.12.2026 -
Pol Lozano Espanyol Ativo 143 / 129 40% 3 13.12.2026 -
Adam Wharton Crystal Palace Ativo 143 / 166 40% 2 13.12.2026 -
Caylan Vickers Burton Albion Ativo 111 / 107 40% 3 12.12.2026 -
Alejandro Francés Girona Ativo 137 / 128 40% 1 10.12.2026 -
Noah Sadiki Sunderland Ativo 140 / 136 40% 1 10.12.2026 -
Adrià Altimira Deportivo La Coruña Ativo 137 / 115 40% 1 08.12.2026 -
Richard Ledezma Guadalajara Ativo 143 / 127 40% 1 08.12.2026 -
Arda Güler Real Madrid Ativo 155 / 153 40% 1 07.12.2026 -
Percy Jali Free State Stars Ativo 80 / 82 40% 1 05.12.2026 -
Jesús Rodríguez Como Ativo 133 / 131 40% 1 02.12.2026 -
Diogo Guzmán Montevideo City Torque Ativo 113 / 125 40% 1 30.11.2026 -
James Cardona La Equidad Ativo 148 / 137 40% 3 28.11.2026 -
Kevin Álvarez Club America Ativo 124 / 146 40% 1 28.11.2026 -
Rayan Aït-Nouri Manchester City Ativo 146 / 135 40% 1 26.11.2026 -
Malick Fofana Sunderland Ativo 147 / 154 40% 3 23.11.2026 -
Ilaix Moriba Celta Ativo 149 / 151 40% 2 22.11.2026 -
Boubacar Kamara Aston Villa Ativo 158 / 153 40% 1 22.11.2026 -
Carlos Romero Villarreal Ativo 149 / 156 40% 1 22.11.2026 -
Giovanni Cantizano Rosario Central Ativo 102 / 122 40% 3 20.11.2026 -
Diego Gaitán Maipú Ativo 101 / 113 40% 2 20.11.2026 -
Javier Mena Portimonense Ativo 122 / 115 40% 1 19.11.2026 -
Franco Minerva Platense Ativo 120 / 126 40% 1 19.11.2026 -
Ethan Williams Peterborough United Ativo 115 / 106 40% 1 18.11.2026 -
Tyler Adams Bournemouth Ativo 151 / 166 40% 1 18.11.2026 -
Aníbal Moreno River Plate Ativo 140 / 127 40% 4 13.11.2026 -
Rico Lewis Manchester City Ativo 143 / 156 40% 2 13.11.2026 -
Mika Mármol Feyenoord Ativo 133 / 125 40% 1 13.11.2026 -
Ryan Sessegnon Fulham Ativo 150 / 146 40% 1 13.11.2026 -
Oscar Schwartau Norwich City Ativo 115 / 115 40% 1 13.11.2026 -
Jonás Luna Santa Clara Ativo 117 / 127 40% 1 13.11.2026 -
Nico O'Reilly Manchester City Ativo 157 / 145 40% 2 12.11.2026 -
Ayrton Costa Boca Juniors Ativo 123 / 140 40% 1 10.11.2026 -
Shea Charles Southampton Ativo 137 / 136 40% 1 10.11.2026 -
Logan Costa Villarreal Ativo 142 / 150 40% 1 10.11.2026 -
Valentino Acuña Newell's Old Boys Ativo 118 / 121 40% 1 08.11.2026 -
Ousmane Diomande Nottingham Forest Ativo 157 / 145 40% 1 06.11.2026 -
Israel Reyes CSKA Moscow Ativo 131 / 157 40% 1 06.11.2026 -
Quinten Timber Crystal Palace Ativo 141 / 142 40% 1 04.11.2026 -
Pedro Porro Tottenham Ativo 151 / 157 40% 1 04.11.2026 -
Leo Castledine Middlesbrough Ativo 127 / 129 40% 1 03.11.2026 -
Sidiki Chérif Coventry City Ativo 130 / 116 40% 1 03.11.2026 -
Anton Stach Leeds United Ativo 149 / 143 40% 2 02.11.2026 -
Gavi Barcelona Ativo 159 / 153 40% 1 02.11.2026 -
Ramiro Hernandes Belgrano Ativo 114 / 135 40% 1 31.10.2026 -
Tomás Aranda Boca Juniors Ativo 106 / 113 40% 2 30.10.2026 -
Luca Regiardo Newell's Old Boys Ativo 97 / 108 40% 1 28.10.2026 -
Mateo Aguiar Defensa y Justicia Ativo 118 / 118 40% 1 25.10.2026 -
Didier Dawson Envigado Ativo 110 / 103 40% 1 21.10.2026 -
Nazareno Kihm Ferro Carril Oeste Ativo 115 / 117 40% 1 15.10.2026 -
Ignacio Perruzzi San Lorenzo Ativo 117 / 138 40% 1 14.10.2026 -
Rodrigo Huescas FC Copenhagen Ativo 138 / 126 40% 1 13.10.2026 -
Fidel Ambríz Monterrey Ativo 135 / 144 40% 1 13.10.2026 -
Yehor Yarmoliuk Brentford Ativo 154 / 158 40% 1 12.10.2026 -
Víctor Guzmán Monterrey Ativo 122 / 134 40% 1 09.10.2026 -
Tilman Palacios America de Cali Ativo 119 / 127 40% 1 07.10.2026 -
Sergio Gómez Real Sociedad Ativo 148 / 154 40% 1 11.09.2026 -
Ethan Galbraith Swansea City Ativo 127 / 136 40% 1 08.09.2026 -
Dani Vivian Athletic Bilbao Ativo 151 / 159 40% 1 08.09.2026 -
Natan Betis Ativo 138 / 149 40% 1 07.09.2026 -
Nathan Collins Brentford Ativo 145 / 136 40% 1 07.09.2026 -
Lucas Pyziak Vélez Ativo 98 / 113 40% 1 05.08.2026 -
Ángel Sepúlveda Guadalajara Ativo 135 / 128 40% 1 01.08.2026 -